sensor_id;sensor_type;location;lat;lon;timestamp;P1;durP1;ratioP1;P2;durP2;ratioP2
21444;SDS011;10883;51.946;20.140;2023-06-14T00:00:31;6.88;;;5.00;;
21444;SDS011;10883;51.946;20.140;2023-06-14T00:02:57;8.63;;;5.50;;
21444;SDS011;10883;51.946;20.140;2023-06-14T00:05:23;6.50;;;4.85;;
21444;SDS011;10883;51.946;20.140;2023-06-14T00:07:49;6.68;;;4.78;;
21444;SDS011;10883;51.946;20.140;2023-06-14T00:10:18;5.80;;;4.63;;
21444;SDS011;10883;51.946;20.140;2023-06-14T00:12:44;5.47;;;4.80;;
21444;SDS011;10883;51.946;20.140;2023-06-14T00:15:10;7.82;;;5.30;;
21444;SDS011;10883;51.946;20.140;2023-06-14T00:17:36;9.50;;;5.32;;
21444;SDS011;10883;51.946;20.140;2023-06-14T00:20:04;6.72;;;5.15;;
21444;SDS011;10883;51.946;20.140;2023-06-14T00:22:33;7.05;;;5.40;;
21444;SDS011;10883;51.946;20.140;2023-06-14T00:25:01;6.63;;;5.05;;
21444;SDS011;10883;51.946;20.140;2023-06-14T00:27:27;9.43;;;5.30;;
21444;SDS011;10883;51.946;20.140;2023-06-14T00:29:53;8.13;;;6.43;;
21444;SDS011;10883;51.946;20.140;2023-06-14T00:32:18;10.48;;;6.15;;
21444;SDS011;10883;51.946;20.140;2023-06-14T00:34:44;9.40;;;6.50;;
21444;SDS011;10883;51.946;20.140;2023-06-14T00:37:10;9.85;;;6.85;;
21444;SDS011;10883;51.946;20.140;2023-06-14T00:39:36;9.50;;;5.97;;
21444;SDS011;10883;51.946;20.140;2023-06-14T00:42:02;12.55;;;7.35;;
21444;SDS011;10883;51.946;20.140;2023-06-14T00:44:28;10.85;;;7.50;;
21444;SDS011;10883;51.946;20.140;2023-06-14T00:46:53;10.05;;;6.97;;
21444;SDS011;10883;51.946;20.140;2023-06-14T00:49:19;8.20;;;7.07;;
21444;SDS011;10883;51.946;20.140;2023-06-14T00:51:45;11.25;;;7.78;;
21444;SDS011;10883;51.946;20.140;2023-06-14T00:54:11;10.48;;;7.57;;
21444;SDS011;10883;51.946;20.140;2023-06-14T00:56:37;11.25;;;8.10;;
21444;SDS011;10883;51.946;20.140;2023-06-14T00:59:04;13.38;;;7.85;;
21444;SDS011;10883;51.946;20.140;2023-06-14T01:01:31;10.50;;;7.70;;
21444;SDS011;10883;51.946;20.140;2023-06-14T01:03:59;11.93;;;8.02;;
21444;SDS011;10883;51.946;20.140;2023-06-14T01:06:33;10.90;;;7.90;;
21444;SDS011;10883;51.946;20.140;2023-06-14T01:09:37;10.25;;;8.07;;
21444;SDS011;10883;51.946;20.140;2023-06-14T01:12:31;12.48;;;7.80;;
21444;SDS011;10883;51.946;20.140;2023-06-14T01:15:16;10.30;;;7.35;;
21444;SDS011;10883;51.946;20.140;2023-06-14T01:17:43;12.02;;;7.57;;
21444;SDS011;10883;51.946;20.140;2023-06-14T01:20:11;11.77;;;8.90;;
21444;SDS011;10883;51.946;20.140;2023-06-14T01:22:48;12.15;;;7.72;;
21444;SDS011;10883;51.946;20.140;2023-06-14T01:25:21;13.10;;;8.32;;
21444;SDS011;10883;51.946;20.140;2023-06-14T01:28:00;10.50;;;8.77;;
21444;SDS011;10883;51.946;20.140;2023-06-14T01:30:29;12.70;;;8.25;;
21444;SDS011;10883;51.946;20.140;2023-06-14T01:32:58;11.95;;;8.55;;
21444;SDS011;10883;51.946;20.140;2023-06-14T01:35:24;13.70;;;7.78;;
21444;SDS011;10883;51.946;20.140;2023-06-14T01:37:50;12.15;;;7.97;;
21444;SDS011;10883;51.946;20.140;2023-06-14T01:40:17;12.38;;;8.93;;
21444;SDS011;10883;51.946;20.140;2023-06-14T01:42:46;14.32;;;8.75;;
21444;SDS011;10883;51.946;20.140;2023-06-14T01:45:13;12.90;;;8.57;;
21444;SDS011;10883;51.946;20.140;2023-06-14T01:47:40;11.05;;;8.30;;
21444;SDS011;10883;51.946;20.140;2023-06-14T01:50:06;12.90;;;7.93;;
21444;SDS011;10883;51.946;20.140;2023-06-14T01:52:32;11.23;;;8.35;;
21444;SDS011;10883;51.946;20.140;2023-06-14T01:54:57;18.55;;;7.80;;
21444;SDS011;10883;51.946;20.140;2023-06-14T01:57:24;11.57;;;8.13;;
21444;SDS011;10883;51.946;20.140;2023-06-14T01:59:51;12.52;;;8.95;;
21444;SDS011;10883;51.946;20.140;2023-06-14T02:02:17;14.25;;;9.35;;
21444;SDS011;10883;51.946;20.140;2023-06-14T02:04:43;14.63;;;9.25;;
21444;SDS011;10883;51.946;20.140;2023-06-14T02:07:12;12.45;;;8.73;;
21444;SDS011;10883;51.946;20.140;2023-06-14T02:09:39;13.30;;;9.00;;
21444;SDS011;10883;51.946;20.140;2023-06-14T02:12:05;13.55;;;9.02;;
21444;SDS011;10883;51.946;20.140;2023-06-14T02:14:31;15.10;;;10.07;;
21444;SDS011;10883;51.946;20.140;2023-06-14T02:16:57;17.35;;;11.73;;
21444;SDS011;10883;51.946;20.140;2023-06-14T02:19:23;16.23;;;10.52;;
21444;SDS011;10883;51.946;20.140;2023-06-14T02:21:50;17.77;;;10.43;;
21444;SDS011;10883;51.946;20.140;2023-06-14T02:24:16;17.40;;;11.43;;
21444;SDS011;10883;51.946;20.140;2023-06-14T02:26:41;13.77;;;9.98;;
21444;SDS011;10883;51.946;20.140;2023-06-14T02:29:07;14.00;;;10.88;;
21444;SDS011;10883;51.946;20.140;2023-06-14T02:31:37;12.18;;;9.48;;
21444;SDS011;10883;51.946;20.140;2023-06-14T02:34:04;15.35;;;11.07;;
21444;SDS011;10883;51.946;20.140;2023-06-14T02:36:29;15.82;;;10.73;;
21444;SDS011;10883;51.946;20.140;2023-06-14T02:38:55;14.27;;;10.27;;
21444;SDS011;10883;51.946;20.140;2023-06-14T02:41:24;15.00;;;10.70;;
21444;SDS011;10883;51.946;20.140;2023-06-14T02:43:51;17.95;;;12.60;;
21444;SDS011;10883;51.946;20.140;2023-06-14T02:46:17;16.92;;;12.45;;
21444;SDS011;10883;51.946;20.140;2023-06-14T02:48:43;18.00;;;11.95;;
21444;SDS011;10883;51.946;20.140;2023-06-14T02:51:09;18.98;;;13.32;;
21444;SDS011;10883;51.946;20.140;2023-06-14T02:53:35;23.50;;;13.07;;
21444;SDS011;10883;51.946;20.140;2023-06-14T02:56:04;18.65;;;13.45;;
21444;SDS011;10883;51.946;20.140;2023-06-14T02:58:30;18.10;;;12.60;;
21444;SDS011;10883;51.946;20.140;2023-06-14T03:00:56;17.20;;;12.43;;
21444;SDS011;10883;51.946;20.140;2023-06-14T03:03:21;22.60;;;12.52;;
21444;SDS011;10883;51.946;20.140;2023-06-14T03:05:49;18.80;;;13.13;;
21444;SDS011;10883;51.946;20.140;2023-06-14T03:08:16;16.83;;;12.52;;
21444;SDS011;10883;51.946;20.140;2023-06-14T03:10:47;19.65;;;13.15;;
21444;SDS011;10883;51.946;20.140;2023-06-14T03:13:14;16.30;;;12.82;;
21444;SDS011;10883;51.946;20.140;2023-06-14T03:15:46;19.92;;;11.85;;
21444;SDS011;10883;51.946;20.140;2023-06-14T03:18:12;17.25;;;12.40;;
21444;SDS011;10883;51.946;20.140;2023-06-14T03:20:40;18.92;;;12.90;;
21444;SDS011;10883;51.946;20.140;2023-06-14T03:23:07;13.95;;;11.65;;
21444;SDS011;10883;51.946;20.140;2023-06-14T03:25:34;23.55;;;12.65;;
21444;SDS011;10883;51.946;20.140;2023-06-14T03:28:03;18.77;;;12.18;;
21444;SDS011;10883;51.946;20.140;2023-06-14T03:30:30;17.63;;;12.90;;
21444;SDS011;10883;51.946;20.140;2023-06-14T03:32:57;18.33;;;12.23;;
21444;SDS011;10883;51.946;20.140;2023-06-14T03:35:26;17.90;;;13.00;;
21444;SDS011;10883;51.946;20.140;2023-06-14T03:37:52;17.00;;;11.70;;
21444;SDS011;10883;51.946;20.140;2023-06-14T03:40:18;16.52;;;12.25;;
21444;SDS011;10883;51.946;20.140;2023-06-14T03:42:47;14.77;;;11.07;;
21444;SDS011;10883;51.946;20.140;2023-06-14T03:45:13;15.07;;;12.02;;
21444;SDS011;10883;51.946;20.140;2023-06-14T03:47:38;16.30;;;11.43;;
21444;SDS011;10883;51.946;20.140;2023-06-14T03:50:05;18.00;;;11.05;;
21444;SDS011;10883;51.946;20.140;2023-06-14T03:52:31;15.05;;;11.68;;
21444;SDS011;10883;51.946;20.140;2023-06-14T03:54:57;21.02;;;11.52;;
21444;SDS011;10883;51.946;20.140;2023-06-14T03:57:25;17.88;;;12.30;;
21444;SDS011;10883;51.946;20.140;2023-06-14T03:59:51;15.52;;;11.57;;
21444;SDS011;10883;51.946;20.140;2023-06-14T04:02:17;15.00;;;10.82;;
21444;SDS011;10883;51.946;20.140;2023-06-14T04:04:44;12.20;;;10.27;;
21444;SDS011;10883;51.946;20.140;2023-06-14T04:07:13;15.60;;;10.30;;
21444;SDS011;10883;51.946;20.140;2023-06-14T04:09:39;13.98;;;10.32;;
21444;SDS011;10883;51.946;20.140;2023-06-14T04:12:05;11.98;;;10.10;;
21444;SDS011;10883;51.946;20.140;2023-06-14T04:14:33;12.80;;;9.32;;
21444;SDS011;10883;51.946;20.140;2023-06-14T04:16:59;13.68;;;9.65;;
21444;SDS011;10883;51.946;20.140;2023-06-14T04:19:26;11.82;;;7.72;;
21444;SDS011;10883;51.946;20.140;2023-06-14T04:21:52;9.48;;;7.82;;
21444;SDS011;10883;51.946;20.140;2023-06-14T04:24:17;13.98;;;7.82;;
21444;SDS011;10883;51.946;20.140;2023-06-14T04:26:43;10.35;;;6.93;;
21444;SDS011;10883;51.946;20.140;2023-06-14T04:29:10;12.32;;;7.38;;
21444;SDS011;10883;51.946;20.140;2023-06-14T04:31:39;10.05;;;7.63;;
21444;SDS011;10883;51.946;20.140;2023-06-14T04:34:06;12.75;;;7.18;;
21444;SDS011;10883;51.946;20.140;2023-06-14T04:36:32;9.02;;;6.95;;
21444;SDS011;10883;51.946;20.140;2023-06-14T04:39:03;9.07;;;7.05;;
21444;SDS011;10883;51.946;20.140;2023-06-14T04:41:29;11.80;;;7.50;;
21444;SDS011;10883;51.946;20.140;2023-06-14T04:44:00;9.07;;;6.88;;
21444;SDS011;10883;51.946;20.140;2023-06-14T04:46:29;10.10;;;7.13;;
21444;SDS011;10883;51.946;20.140;2023-06-14T04:48:57;8.73;;;6.55;;
21444;SDS011;10883;51.946;20.140;2023-06-14T04:51:27;8.07;;;6.22;;
21444;SDS011;10883;51.946;20.140;2023-06-14T04:53:57;8.32;;;6.20;;
21444;SDS011;10883;51.946;20.140;2023-06-14T04:56:24;10.57;;;7.20;;
21444;SDS011;10883;51.946;20.140;2023-06-14T04:58:54;9.73;;;6.97;;
21444;SDS011;10883;51.946;20.140;2023-06-14T05:01:22;7.00;;;5.85;;
21444;SDS011;10883;51.946;20.140;2023-06-14T05:03:48;10.40;;;6.72;;
21444;SDS011;10883;51.946;20.140;2023-06-14T05:06:14;11.98;;;6.90;;
21444;SDS011;10883;51.946;20.140;2023-06-14T05:08:42;8.35;;;6.78;;
21444;SDS011;10883;51.946;20.140;2023-06-14T05:11:08;8.73;;;6.30;;
21444;SDS011;10883;51.946;20.140;2023-06-14T05:13:33;9.25;;;6.40;;
21444;SDS011;10883;51.946;20.140;2023-06-14T05:15:59;12.85;;;7.00;;
21444;SDS011;10883;51.946;20.140;2023-06-14T05:18:25;8.40;;;6.03;;
21444;SDS011;10883;51.946;20.140;2023-06-14T05:20:51;7.95;;;6.05;;
21444;SDS011;10883;51.946;20.140;2023-06-14T05:23:17;8.50;;;5.88;;
21444;SDS011;10883;51.946;20.140;2023-06-14T05:25:43;14.18;;;6.88;;
21444;SDS011;10883;51.946;20.140;2023-06-14T05:28:10;8.18;;;5.90;;
21444;SDS011;10883;51.946;20.140;2023-06-14T05:30:37;11.02;;;6.80;;
21444;SDS011;10883;51.946;20.140;2023-06-14T05:33:03;9.00;;;6.60;;
21444;SDS011;10883;51.946;20.140;2023-06-14T05:35:29;12.55;;;6.80;;
21444;SDS011;10883;51.946;20.140;2023-06-14T05:37:55;10.00;;;6.63;;
21444;SDS011;10883;51.946;20.140;2023-06-14T05:40:21;9.05;;;6.00;;
21444;SDS011;10883;51.946;20.140;2023-06-14T05:42:47;8.80;;;6.28;;
21444;SDS011;10883;51.946;20.140;2023-06-14T05:45:13;12.48;;;7.63;;
21444;SDS011;10883;51.946;20.140;2023-06-14T05:47:40;10.32;;;6.78;;
21444;SDS011;10883;51.946;20.140;2023-06-14T05:50:06;9.98;;;6.88;;
21444;SDS011;10883;51.946;20.140;2023-06-14T05:52:32;9.40;;;6.30;;
21444;SDS011;10883;51.946;20.140;2023-06-14T05:54:58;9.18;;;6.22;;
21444;SDS011;10883;51.946;20.140;2023-06-14T05:57:25;7.60;;;5.57;;
21444;SDS011;10883;51.946;20.140;2023-06-14T05:59:50;8.30;;;5.63;;
21444;SDS011;10883;51.946;20.140;2023-06-14T06:02:16;11.40;;;6.32;;
21444;SDS011;10883;51.946;20.140;2023-06-14T06:04:42;12.38;;;5.90;;
21444;SDS011;10883;51.946;20.140;2023-06-14T06:07:08;11.23;;;6.50;;
21444;SDS011;10883;51.946;20.140;2023-06-14T06:09:33;9.18;;;6.05;;
21444;SDS011;10883;51.946;20.140;2023-06-14T06:11:59;10.98;;;6.32;;
21444;SDS011;10883;51.946;20.140;2023-06-14T06:14:25;8.32;;;5.85;;
21444;SDS011;10883;51.946;20.140;2023-06-14T06:16:51;7.90;;;6.18;;
21444;SDS011;10883;51.946;20.140;2023-06-14T06:19:17;7.90;;;5.03;;
21444;SDS011;10883;51.946;20.140;2023-06-14T06:21:43;9.75;;;5.47;;
21444;SDS011;10883;51.946;20.140;2023-06-14T06:24:09;10.38;;;5.32;;
21444;SDS011;10883;51.946;20.140;2023-06-14T06:26:35;8.05;;;5.03;;
21444;SDS011;10883;51.946;20.140;2023-06-14T06:29:01;9.75;;;4.93;;
21444;SDS011;10883;51.946;20.140;2023-06-14T06:31:27;8.27;;;5.38;;
21444;SDS011;10883;51.946;20.140;2023-06-14T06:33:53;8.45;;;5.00;;
21444;SDS011;10883;51.946;20.140;2023-06-14T06:36:19;6.35;;;4.85;;
21444;SDS011;10883;51.946;20.140;2023-06-14T06:38:46;9.65;;;4.97;;
21444;SDS011;10883;51.946;20.140;2023-06-14T06:41:13;6.50;;;4.72;;
21444;SDS011;10883;51.946;20.140;2023-06-14T06:43:38;10.75;;;4.72;;
21444;SDS011;10883;51.946;20.140;2023-06-14T06:46:04;6.97;;;4.53;;
21444;SDS011;10883;51.946;20.140;2023-06-14T06:48:30;7.25;;;4.72;;
21444;SDS011;10883;51.946;20.140;2023-06-14T06:50:56;5.18;;;4.18;;
21444;SDS011;10883;51.946;20.140;2023-06-14T06:53:21;4.35;;;3.95;;
21444;SDS011;10883;51.946;20.140;2023-06-14T06:55:48;5.90;;;4.47;;
21444;SDS011;10883;51.946;20.140;2023-06-14T06:58:13;7.53;;;4.70;;
21444;SDS011;10883;51.946;20.140;2023-06-14T07:00:40;6.88;;;4.53;;
21444;SDS011;10883;51.946;20.140;2023-06-14T07:03:06;12.40;;;5.03;;
21444;SDS011;10883;51.946;20.140;2023-06-14T07:05:31;5.35;;;3.85;;
21444;SDS011;10883;51.946;20.140;2023-06-14T07:07:57;7.03;;;4.65;;
21444;SDS011;10883;51.946;20.140;2023-06-14T07:10:23;7.93;;;4.18;;
21444;SDS011;10883;51.946;20.140;2023-06-14T07:12:52;6.35;;;4.63;;
21444;SDS011;10883;51.946;20.140;2023-06-14T07:15:18;5.88;;;4.38;;
21444;SDS011;10883;51.946;20.140;2023-06-14T07:17:43;8.25;;;4.68;;
21444;SDS011;10883;51.946;20.140;2023-06-14T07:20:09;10.63;;;4.30;;
21444;SDS011;10883;51.946;20.140;2023-06-14T07:22:42;6.93;;;4.38;;
21444;SDS011;10883;51.946;20.140;2023-06-14T07:25:08;6.90;;;4.18;;
21444;SDS011;10883;51.946;20.140;2023-06-14T07:27:37;6.63;;;3.97;;
21444;SDS011;10883;51.946;20.140;2023-06-14T07:30:03;5.00;;;4.13;;
21444;SDS011;10883;51.946;20.140;2023-06-14T07:32:29;5.72;;;3.80;;
21444;SDS011;10883;51.946;20.140;2023-06-14T07:34:55;4.28;;;3.88;;
21444;SDS011;10883;51.946;20.140;2023-06-14T07:37:21;8.65;;;3.63;;
21444;SDS011;10883;51.946;20.140;2023-06-14T07:39:47;5.88;;;3.90;;
21444;SDS011;10883;51.946;20.140;2023-06-14T07:42:12;6.35;;;3.45;;
21444;SDS011;10883;51.946;20.140;2023-06-14T07:44:38;5.93;;;3.90;;
21444;SDS011;10883;51.946;20.140;2023-06-14T07:47:04;5.32;;;3.42;;
21444;SDS011;10883;51.946;20.140;2023-06-14T07:49:30;7.75;;;4.22;;
21444;SDS011;10883;51.946;20.140;2023-06-14T07:51:56;8.80;;;4.03;;
21444;SDS011;10883;51.946;20.140;2023-06-14T07:54:21;5.88;;;4.03;;
21444;SDS011;10883;51.946;20.140;2023-06-14T07:56:51;8.00;;;4.07;;
21444;SDS011;10883;51.946;20.140;2023-06-14T07:59:17;4.55;;;3.75;;
21444;SDS011;10883;51.946;20.140;2023-06-14T08:01:43;7.88;;;4.30;;
21444;SDS011;10883;51.946;20.140;2023-06-14T08:04:15;6.05;;;4.13;;
21444;SDS011;10883;51.946;20.140;2023-06-14T08:06:41;5.22;;;3.80;;
21444;SDS011;10883;51.946;20.140;2023-06-14T08:09:10;6.15;;;3.80;;
21444;SDS011;10883;51.946;20.140;2023-06-14T08:11:37;7.38;;;4.30;;
21444;SDS011;10883;51.946;20.140;2023-06-14T08:14:03;7.55;;;4.25;;
21444;SDS011;10883;51.946;20.140;2023-06-14T08:16:29;5.65;;;4.38;;
21444;SDS011;10883;51.946;20.140;2023-06-14T08:18:55;9.45;;;4.18;;
21444;SDS011;10883;51.946;20.140;2023-06-14T08:21:21;7.55;;;4.30;;
21444;SDS011;10883;51.946;20.140;2023-06-14T08:23:47;7.85;;;4.00;;
21444;SDS011;10883;51.946;20.140;2023-06-14T08:26:12;4.65;;;3.95;;
21444;SDS011;10883;51.946;20.140;2023-06-14T08:28:38;7.35;;;4.35;;
21444;SDS011;10883;51.946;20.140;2023-06-14T08:31:04;9.85;;;4.40;;
21444;SDS011;10883;51.946;20.140;2023-06-14T08:33:30;8.10;;;4.38;;
21444;SDS011;10883;51.946;20.140;2023-06-14T08:35:58;8.10;;;4.50;;
21444;SDS011;10883;51.946;20.140;2023-06-14T08:38:23;7.20;;;3.40;;
21444;SDS011;10883;51.946;20.140;2023-06-14T08:40:50;7.63;;;3.17;;
21444;SDS011;10883;51.946;20.140;2023-06-14T08:43:17;3.63;;;2.95;;
21444;SDS011;10883;51.946;20.140;2023-06-14T08:45:43;4.55;;;3.30;;
21444;SDS011;10883;51.946;20.140;2023-06-14T08:48:11;6.75;;;3.28;;
21444;SDS011;10883;51.946;20.140;2023-06-14T08:50:42;10.00;;;3.38;;
21444;SDS011;10883;51.946;20.140;2023-06-14T08:53:11;8.63;;;3.35;;
21444;SDS011;10883;51.946;20.140;2023-06-14T08:55:41;9.05;;;3.40;;
21444;SDS011;10883;51.946;20.140;2023-06-14T08:58:08;4.57;;;2.60;;
21444;SDS011;10883;51.946;20.140;2023-06-14T09:00:34;5.07;;;3.30;;
21444;SDS011;10883;51.946;20.140;2023-06-14T09:03:02;6.07;;;3.15;;
21444;SDS011;10883;51.946;20.140;2023-06-14T09:05:28;6.57;;;3.78;;
21444;SDS011;10883;51.946;20.140;2023-06-14T09:07:54;9.07;;;4.07;;
21444;SDS011;10883;51.946;20.140;2023-06-14T09:10:21;5.70;;;3.15;;
21444;SDS011;10883;51.946;20.140;2023-06-14T09:12:47;5.65;;;3.25;;
21444;SDS011;10883;51.946;20.140;2023-06-14T09:15:13;5.07;;;3.13;;
21444;SDS011;10883;51.946;20.140;2023-06-14T09:17:39;4.80;;;2.95;;
21444;SDS011;10883;51.946;20.140;2023-06-14T09:20:06;5.57;;;3.90;;
21444;SDS011;10883;51.946;20.140;2023-06-14T09:22:39;4.82;;;3.22;;
21444;SDS011;10883;51.946;20.140;2023-06-14T09:25:06;5.50;;;2.60;;
21444;SDS011;10883;51.946;20.140;2023-06-14T09:27:32;4.40;;;2.75;;
21444;SDS011;10883;51.946;20.140;2023-06-14T09:30:00;10.90;;;3.35;;
21444;SDS011;10883;51.946;20.140;2023-06-14T09:32:30;7.10;;;2.78;;
21444;SDS011;10883;51.946;20.140;2023-06-14T09:34:56;4.65;;;3.30;;
21444;SDS011;10883;51.946;20.140;2023-06-14T09:37:29;5.18;;;3.08;;
21444;SDS011;10883;51.946;20.140;2023-06-14T09:39:55;7.85;;;3.00;;
21444;SDS011;10883;51.946;20.140;2023-06-14T09:42:22;7.97;;;3.15;;
21444;SDS011;10883;51.946;20.140;2023-06-14T09:44:50;6.95;;;3.40;;
21444;SDS011;10883;51.946;20.140;2023-06-14T09:47:18;5.15;;;2.70;;
21444;SDS011;10883;51.946;20.140;2023-06-14T09:49:44;6.47;;;3.50;;
21444;SDS011;10883;51.946;20.140;2023-06-14T09:52:10;4.72;;;3.25;;
21444;SDS011;10883;51.946;20.140;2023-06-14T09:54:40;5.15;;;2.92;;
21444;SDS011;10883;51.946;20.140;2023-06-14T09:57:15;3.85;;;3.05;;
21444;SDS011;10883;51.946;20.140;2023-06-14T09:59:46;9.45;;;3.45;;
21444;SDS011;10883;51.946;20.140;2023-06-14T10:02:25;4.38;;;3.28;;
21444;SDS011;10883;51.946;20.140;2023-06-14T10:07:40;8.70;;;3.67;;
21444;SDS011;10883;51.946;20.140;2023-06-14T10:10:12;5.60;;;3.47;;
21444;SDS011;10883;51.946;20.140;2023-06-14T10:12:38;5.93;;;3.17;;
21444;SDS011;10883;51.946;20.140;2023-06-14T10:15:07;6.18;;;3.55;;
21444;SDS011;10883;51.946;20.140;2023-06-14T10:17:46;4.93;;;3.58;;
21444;SDS011;10883;51.946;20.140;2023-06-14T10:20:30;5.07;;;3.53;;
21444;SDS011;10883;51.946;20.140;2023-06-14T10:23:16;6.78;;;3.53;;
21444;SDS011;10883;51.946;20.140;2023-06-14T10:25:44;5.65;;;3.40;;
21444;SDS011;10883;51.946;20.140;2023-06-14T10:28:21;6.22;;;3.65;;
21444;SDS011;10883;51.946;20.140;2023-06-14T10:31:07;9.43;;;4.10;;
21444;SDS011;10883;51.946;20.140;2023-06-14T10:33:35;9.20;;;3.70;;
21444;SDS011;10883;51.946;20.140;2023-06-14T10:38:42;7.45;;;4.22;;
21444;SDS011;10883;51.946;20.140;2023-06-14T10:41:08;6.05;;;3.60;;
21444;SDS011;10883;51.946;20.140;2023-06-14T10:43:34;4.57;;;3.58;;
21444;SDS011;10883;51.946;20.140;2023-06-14T10:48:48;9.80;;;4.07;;
21444;SDS011;10883;51.946;20.140;2023-06-14T10:51:20;7.50;;;4.30;;
21444;SDS011;10883;51.946;20.140;2023-06-14T10:53:48;14.10;;;5.10;;
21444;SDS011;10883;51.946;20.140;2023-06-14T10:56:28;7.07;;;4.60;;
21444;SDS011;10883;51.946;20.140;2023-06-14T10:58:58;5.53;;;4.60;;
21444;SDS011;10883;51.946;20.140;2023-06-14T11:01:37;9.00;;;4.88;;
21444;SDS011;10883;51.946;20.140;2023-06-14T11:04:10;6.05;;;4.88;;
21444;SDS011;10883;51.946;20.140;2023-06-14T11:06:46;7.75;;;4.45;;
21444;SDS011;10883;51.946;20.140;2023-06-14T11:12:13;8.40;;;5.35;;
21444;SDS011;10883;51.946;20.140;2023-06-14T11:14:40;6.60;;;4.78;;
21444;SDS011;10883;51.946;20.140;2023-06-14T11:17:05;11.88;;;4.50;;
21444;SDS011;10883;51.946;20.140;2023-06-14T11:19:31;10.13;;;4.95;;
21444;SDS011;10883;51.946;20.140;2023-06-14T11:21:57;6.55;;;5.22;;
21444;SDS011;10883;51.946;20.140;2023-06-14T11:24:24;10.68;;;5.45;;
21444;SDS011;10883;51.946;20.140;2023-06-14T11:26:50;7.57;;;4.80;;
21444;SDS011;10883;51.946;20.140;2023-06-14T11:29:16;13.40;;;5.72;;
21444;SDS011;10883;51.946;20.140;2023-06-14T11:31:45;6.78;;;5.72;;
21444;SDS011;10883;51.946;20.140;2023-06-14T11:34:11;8.15;;;5.18;;
21444;SDS011;10883;51.946;20.140;2023-06-14T11:36:38;7.38;;;5.05;;
21444;SDS011;10883;51.946;20.140;2023-06-14T11:39:05;22.60;;;6.43;;
21444;SDS011;10883;51.946;20.140;2023-06-14T11:41:41;21.25;;;7.63;;
21444;SDS011;10883;51.946;20.140;2023-06-14T11:44:08;11.55;;;5.75;;
21444;SDS011;10883;51.946;20.140;2023-06-14T11:46:35;10.10;;;6.13;;
21444;SDS011;10883;51.946;20.140;2023-06-14T11:49:01;10.70;;;6.35;;
21444;SDS011;10883;51.946;20.140;2023-06-14T11:51:32;15.57;;;6.47;;
21444;SDS011;10883;51.946;20.140;2023-06-14T11:53:59;10.50;;;6.57;;
21444;SDS011;10883;51.946;20.140;2023-06-14T11:56:27;13.35;;;7.25;;
21444;SDS011;10883;51.946;20.140;2023-06-14T11:58:54;14.05;;;6.88;;
21444;SDS011;10883;51.946;20.140;2023-06-14T12:01:23;12.73;;;7.40;;
21444;SDS011;10883;51.946;20.140;2023-06-14T12:03:51;12.57;;;6.78;;
21444;SDS011;10883;51.946;20.140;2023-06-14T12:06:25;12.10;;;7.65;;
21444;SDS011;10883;51.946;20.140;2023-06-14T12:08:55;9.75;;;6.93;;
21444;SDS011;10883;51.946;20.140;2023-06-14T12:11:21;11.68;;;7.25;;
21444;SDS011;10883;51.946;20.140;2023-06-14T12:13:48;13.80;;;7.82;;
21444;SDS011;10883;51.946;20.140;2023-06-14T12:16:14;11.02;;;6.30;;
21444;SDS011;10883;51.946;20.140;2023-06-14T12:18:40;15.55;;;7.30;;
21444;SDS011;10883;51.946;20.140;2023-06-14T12:21:08;14.02;;;6.10;;
21444;SDS011;10883;51.946;20.140;2023-06-14T12:23:53;14.50;;;6.40;;
21444;SDS011;10883;51.946;20.140;2023-06-14T12:26:19;9.93;;;5.75;;
21444;SDS011;10883;51.946;20.140;2023-06-14T12:28:46;13.05;;;6.13;;
21444;SDS011;10883;51.946;20.140;2023-06-14T12:31:13;9.80;;;5.63;;
21444;SDS011;10883;51.946;20.140;2023-06-14T12:33:40;11.57;;;7.47;;
21444;SDS011;10883;51.946;20.140;2023-06-14T12:36:09;10.45;;;6.05;;
21444;SDS011;10883;51.946;20.140;2023-06-14T12:38:36;9.85;;;6.90;;
21444;SDS011;10883;51.946;20.140;2023-06-14T12:41:02;11.73;;;6.68;;
21444;SDS011;10883;51.946;20.140;2023-06-14T12:43:28;11.25;;;6.53;;
21444;SDS011;10883;51.946;20.140;2023-06-14T12:45:54;10.65;;;6.82;;
21444;SDS011;10883;51.946;20.140;2023-06-14T12:48:20;11.23;;;6.72;;
21444;SDS011;10883;51.946;20.140;2023-06-14T12:50:47;8.25;;;6.07;;
21444;SDS011;10883;51.946;20.140;2023-06-14T12:53:13;11.35;;;6.07;;
21444;SDS011;10883;51.946;20.140;2023-06-14T12:55:39;9.98;;;6.60;;
21444;SDS011;10883;51.946;20.140;2023-06-14T12:58:05;8.23;;;6.40;;
21444;SDS011;10883;51.946;20.140;2023-06-14T13:00:31;11.65;;;6.22;;
21444;SDS011;10883;51.946;20.140;2023-06-14T13:02:57;9.25;;;6.05;;
21444;SDS011;10883;51.946;20.140;2023-06-14T13:05:23;8.65;;;6.25;;
21444;SDS011;10883;51.946;20.140;2023-06-14T13:07:50;7.88;;;6.35;;
21444;SDS011;10883;51.946;20.140;2023-06-14T13:10:16;12.05;;;6.55;;
21444;SDS011;10883;51.946;20.140;2023-06-14T13:12:42;7.75;;;6.13;;
21444;SDS011;10883;51.946;20.140;2023-06-14T13:15:08;10.48;;;6.75;;
21444;SDS011;10883;51.946;20.140;2023-06-14T13:17:34;10.63;;;6.28;;
21444;SDS011;10883;51.946;20.140;2023-06-14T13:20:04;9.15;;;5.10;;
21444;SDS011;10883;51.946;20.140;2023-06-14T13:22:34;7.63;;;5.65;;
21444;SDS011;10883;51.946;20.140;2023-06-14T13:25:00;8.27;;;5.63;;
21444;SDS011;10883;51.946;20.140;2023-06-14T13:27:26;7.10;;;5.43;;
21444;SDS011;10883;51.946;20.140;2023-06-14T13:29:53;12.63;;;6.57;;
21444;SDS011;10883;51.946;20.140;2023-06-14T13:32:20;7.97;;;4.32;;
21444;SDS011;10883;51.946;20.140;2023-06-14T13:34:47;4.78;;;3.83;;
21444;SDS011;10883;51.946;20.140;2023-06-14T13:37:12;13.35;;;4.85;;
21444;SDS011;10883;51.946;20.140;2023-06-14T13:39:38;6.82;;;4.38;;
21444;SDS011;10883;51.946;20.140;2023-06-14T13:42:04;6.43;;;3.75;;
21444;SDS011;10883;51.946;20.140;2023-06-14T13:44:30;9.45;;;4.57;;
21444;SDS011;10883;51.946;20.140;2023-06-14T13:46:56;20.08;;;6.90;;
21444;SDS011;10883;51.946;20.140;2023-06-14T13:49:22;6.90;;;4.18;;
21444;SDS011;10883;51.946;20.140;2023-06-14T13:51:48;24.17;;;6.90;;
21444;SDS011;10883;51.946;20.140;2023-06-14T13:54:13;14.43;;;5.15;;
21444;SDS011;10883;51.946;20.140;2023-06-14T13:56:40;5.78;;;3.40;;
21444;SDS011;10883;51.946;20.140;2023-06-14T13:59:06;13.77;;;4.13;;
21444;SDS011;10883;51.946;20.140;2023-06-14T14:01:32;6.45;;;3.67;;
21444;SDS011;10883;51.946;20.140;2023-06-14T14:03:58;5.38;;;3.53;;
21444;SDS011;10883;51.946;20.140;2023-06-14T14:06:25;6.72;;;3.55;;
21444;SDS011;10883;51.946;20.140;2023-06-14T14:08:51;12.93;;;3.67;;
21444;SDS011;10883;51.946;20.140;2023-06-14T14:11:18;16.83;;;3.92;;
21444;SDS011;10883;51.946;20.140;2023-06-14T14:13:44;13.77;;;3.83;;
21444;SDS011;10883;51.946;20.140;2023-06-14T14:16:10;6.32;;;2.92;;
21444;SDS011;10883;51.946;20.140;2023-06-14T14:18:35;6.25;;;2.88;;
21444;SDS011;10883;51.946;20.140;2023-06-14T14:21:02;4.68;;;2.80;;
21444;SDS011;10883;51.946;20.140;2023-06-14T14:23:28;7.63;;;3.25;;
21444;SDS011;10883;51.946;20.140;2023-06-14T14:25:54;5.22;;;3.40;;
21444;SDS011;10883;51.946;20.140;2023-06-14T14:28:20;6.38;;;3.38;;
21444;SDS011;10883;51.946;20.140;2023-06-14T14:30:46;6.10;;;2.90;;
21444;SDS011;10883;51.946;20.140;2023-06-14T14:33:13;3.90;;;3.40;;
21444;SDS011;10883;51.946;20.140;2023-06-14T14:35:44;5.72;;;3.25;;
21444;SDS011;10883;51.946;20.140;2023-06-14T14:38:13;5.75;;;3.17;;